»·PEaware :: N710DS L71-KPSP

N710DS :: L71-KPSP

FLIGHT INFORMATION

Flight Status: Arrived
Operator: Privately registered:
United States
More flights under this callsign
Pilot: Leighton T. (7520)
Aircraft: Unknown
(B60T)
More flights by this aircraft type
Origin: L71 California City Mun
United States
Destination: KPSP Palm Springs Intl
United States
More flights between these airports :: More routes between these airports
Route: +PMD V137 PSP
File this flight plan on PilotEdge
Remarks:
Altitude:
(Current/Filed)
18,000ft
Speed:
(Current/Filed)
280kts
Departed: 05-Aug-16 08:14 PM
Arrived: 05-Aug-16 08:54 PM
Distance/Time
Traveled:
109nm/0:40
Distance/Time
To Go:
Arrived

Flight Plot

Page will automatically refresh every two minutes.

Flight plan parsing failed; only flown route is shown


Map Options




Map Legend


Flown Route
Filed Route
Departure Airport
Arrival Airport
Navaid (VOR, NDB)
Fix

Horizontal Profiles

Position Reports

Time Latitude Longitude Heading Altitude Ground
Speed
05-Aug-16 19:53 35.150500 -118.015153 270 2457ft 0kts
05-Aug-16 19:54 35.150500 -118.015153 270 2457ft 0kts
05-Aug-16 19:55 35.150500 -118.015154 269 2457ft 0kts
05-Aug-16 19:56 35.150500 -118.015156 269 2457ft 0kts
05-Aug-16 19:57 35.150500 -118.015159 269 2457ft 0kts
05-Aug-16 19:58 35.150500 -118.015161 269 2457ft 0kts
05-Aug-16 19:59 35.150500 -118.015164 269 2457ft 0kts
05-Aug-16 20:00 35.150500 -118.015166 269 2457ft 0kts
05-Aug-16 20:01 35.150500 -118.015168 269 2457ft 0kts
05-Aug-16 20:02 35.150500 -118.015171 269 2457ft 0kts
05-Aug-16 20:03 35.150500 -118.015173 269 2457ft 0kts
05-Aug-16 20:04 35.150500 -118.015175 269 2457ft 0kts
05-Aug-16 20:05 35.150500 -118.015177 269 2457ft 0kts
05-Aug-16 20:06 35.150500 -118.015179 269 2457ft 0kts
05-Aug-16 20:07 35.150500 -118.015181 269 2457ft 0kts
05-Aug-16 20:08 35.150500 -118.015183 269 2457ft 0kts
05-Aug-16 20:09 35.150543 -118.015320 323 2457ft 5kts
05-Aug-16 20:10 35.151139 -118.013954 76 2457ft 9kts
05-Aug-16 20:11 35.152544 -118.007258 74 2457ft 4kts
05-Aug-16 20:12 35.153131 -118.007792 256 2457ft 18kts
05-Aug-16 20:13 35.147543 -118.036555 262 3376ft 130kts
05-Aug-16 20:14 35.110177 -118.039309 188 5266ft 172kts
05-Aug-16 20:15 35.062365 -118.045695 183 6772ft 177kts
05-Aug-16 20:16 35.026858 -118.074893 264 7979ft 188kts
05-Aug-16 20:17 35.026228 -118.132280 268 8018ft 195kts
05-Aug-16 20:18 35.021465 -118.187991 226 8898ft 162kts
05-Aug-16 20:19 34.980299 -118.185063 167 10315ft 150kts
05-Aug-16 20:20 34.938018 -118.170688 166 11770ft 176kts
05-Aug-16 20:21 34.887309 -118.153028 166 13223ft 197kts
05-Aug-16 20:22 34.833347 -118.134198 167 14690ft 206kts
05-Aug-16 20:23 34.777823 -118.114833 168 16137ft 211kts
05-Aug-16 20:24 34.720344 -118.094844 168 17001ft 226kts
05-Aug-16 20:25 34.656556 -118.072690 168 17014ft 243kts
05-Aug-16 20:26 34.609106 -118.014605 120 17017ft 258kts
05-Aug-16 20:27 34.574371 -117.938894 121 17007ft 255kts
05-Aug-16 20:28 34.539923 -117.863802 121 17002ft 254kts
05-Aug-16 20:29 34.505467 -117.788656 121 17017ft 254kts
05-Aug-16 20:30 34.470950 -117.713520 121 17020ft 254kts
05-Aug-16 20:31 34.436246 -117.638169 121 17026ft 259kts
05-Aug-16 20:32 34.401282 -117.562410 121 17026ft 260kts
05-Aug-16 20:33 34.366136 -117.486386 121 17018ft 256kts
05-Aug-16 20:34 34.331603 -117.411828 121 17150ft 250kts
05-Aug-16 20:35 34.296942 -117.337155 121 17180ft 260kts
05-Aug-16 20:36 34.261768 -117.261562 121 17181ft 255kts
05-Aug-16 20:37 34.227095 -117.187243 121 17226ft 260kts
05-Aug-16 20:38 34.195680 -117.119975 121 17234ft 256kts
05-Aug-16 20:39 34.160930 -117.045667 121 17276ft 254kts
05-Aug-16 20:40 34.124832 -116.968679 121 16514ft 276kts
05-Aug-16 20:41 34.086804 -116.887799 121 15069ft 269kts
05-Aug-16 20:42 34.054647 -116.819563 121 13614ft 205kts
05-Aug-16 20:43 34.025537 -116.767450 146 12375ft 173kts
05-Aug-16 20:44 33.991306 -116.735231 142 11448ft 156kts
05-Aug-16 20:45 33.959607 -116.703913 140 10955ft 126kts
05-Aug-16 20:46 33.920098 -116.660521 139 9918ft 224kts
05-Aug-16 20:47 33.875177 -116.610113 139 7997ft 188kts
05-Aug-16 20:48 33.843260 -116.571190 140 6420ft 164kts
05-Aug-16 20:49 33.810390 -116.531895 140 4432ft 168kts
05-Aug-16 20:50 33.778609 -116.495771 131 2455ft 122kts
05-Aug-16 20:51 33.792651 -116.475942 325 1276ft 109kts
05-Aug-16 20:52 33.814539 -116.493732 322 673ft 85kts
05-Aug-16 20:53 33.828389 -116.506873 286 480ft 23kts

Navigation Log

Ident Type
Flight plan parsing failed, navigation log unavailable